Time;durP1;ratioP1;P1;durP2;ratioP2;P2;SDS_P1;SDS_P2;PMS_P1;PMS_P2;Temp;Humidity;BMP_temperature;BMP_pressure;BME280_temperature;BME280_humidity;BME280_pressure;Samples;Min_cycle;Max_cycle;Signal;HPM_P1;HPM_P2
2022/08/09 00:01:37;;;;;;;5.10;2.60;;;;;;;23.00;53.69;94758.31;5012444;28;20201;-71
2022/08/09 00:04:04;;;;;;;5.60;2.95;;;;;;;22.97;54.46;94770.19;5012316;28;20275;-73
2022/08/09 00:06:32;;;;;;;3.10;2.30;;;;;;;22.83;54.33;94770.25;5012480;28;20264;-71
2022/08/09 00:08:59;;;;;;;5.72;2.47;;;;;;;22.35;55.76;94770.84;5012059;28;20283;-71
2022/08/09 00:11:28;;;;;;;9.23;3.05;;;;;;;22.16;56.30;94776.78;5012029;28;20209;-71
2022/08/09 00:13:55;;;;;;;3.30;2.28;;;;;;;22.13;56.40;94772.09;5011754;28;20237;-71
2022/08/09 00:16:22;;;;;;;4.60;3.22;;;;;;;22.11;56.67;94779.97;5011645;28;20255;-72
2022/08/09 00:18:49;;;;;;;4.15;3.05;;;;;;;21.94;56.78;94776.03;5012197;28;20212;-72
2022/08/09 00:21:15;;;;;;;5.22;3.38;;;;;;;21.78;57.29;94768.16;5011894;28;20236;-72
2022/08/09 00:23:42;;;;;;;5.18;3.28;;;;;;;21.81;56.28;94767.38;5012216;28;20213;-72
2022/08/09 00:26:09;;;;;;;2.97;2.60;;;;;;;22.01;56.72;94770.50;5012148;28;20251;-72
2022/08/09 00:28:38;;;;;;;9.55;2.88;;;;;;;21.96;56.39;94774.44;5012121;28;20279;-72
2022/08/09 00:31:06;;;;;;;3.58;2.38;;;;;;;22.06;56.39;94772.09;5011709;28;20672;-73
2022/08/09 00:33:34;;;;;;;4.13;2.45;;;;;;;21.81;56.51;94778.41;5011821;28;20205;-72
2022/08/09 00:36:01;;;;;;;3.00;2.45;;;;;;;21.96;56.53;94777.22;5011583;28;20275;-72
2022/08/09 00:38:28;;;;;;;3.08;2.10;;;;;;;21.37;57.33;94787.06;5011798;28;20267;-73
2022/08/09 00:40:55;;;;;;;2.67;2.03;;;;;;;20.69;59.68;94788.06;5011694;28;20205;-72
2022/08/09 00:43:23;;;;;;;4.63;2.90;;;;;;;20.78;59.84;94782.97;5011345;28;20691;-72
2022/08/09 00:45:51;;;;;;;5.18;2.92;;;;;;;20.85;60.31;94777.50;5011186;28;20197;-73
2022/08/09 00:48:18;;;;;;;4.32;2.92;;;;;;;20.84;60.07;94773.16;5010430;28;20268;-72
2022/08/09 00:50:45;;;;;;;2.33;2.13;;;;;;;21.81;58.03;94778.41;5011299;28;20213;-72
2022/08/09 00:53:12;;;;;;;3.80;2.22;;;;;;;22.17;56.72;94778.38;5011317;28;20201;-71
2022/08/09 00:55:39;;;;;;;6.32;3.28;;;;;;;22.35;56.49;94784.63;5011661;28;20201;-71
2022/08/09 00:58:06;;;;;;;2.88;2.30;;;;;;;22.78;55.63;94778.97;4998282;28;20205;-72
2022/08/09 01:00:35;;;;;;;3.17;2.35;;;;;;;22.70;55.98;94794.75;5010843;28;20271;-71
2022/08/09 01:03:12;;;;;;;3.90;2.30;;;;;;;22.65;55.79;94786.91;5009771;28;20247;-71
2022/08/09 01:05:46;;;;;;;5.53;3.25;;;;;;;22.49;56.18;94790.09;5010796;28;20211;-72
2022/08/09 01:08:19;;;;;;;4.85;2.67;;;;;;;22.31;56.56;94797.66;5011182;28;20193;-73
2022/08/09 01:10:54;;;;;;;4.07;3.20;;;;;;;22.62;56.04;94807.81;5011231;28;20252;-72
2022/08/09 01:13:27;;;;;;;4.55;3.40;;;;;;;22.54;55.83;94798.00;5010752;28;20207;-71
2022/08/09 01:15:56;;;;;;;2.50;2.20;;;;;;;21.90;56.87;94814.63;4998202;28;20233;-71
2022/08/09 01:18:30;;;;;;;3.20;2.20;;;;;;;21.91;56.44;94799.66;5011138;28;20252;-71
2022/08/09 01:21:07;;;;;;;4.40;2.05;;;;;;;22.02;55.48;94804.41;5010595;28;20243;-70
2022/08/09 01:23:45;;;;;;;3.33;2.50;;;;;;;22.15;54.98;94800.03;5011220;28;20197;-71
2022/08/09 01:26:26;;;;;;;3.17;2.60;;;;;;;22.25;54.65;94800.03;5010776;28;20284;-71
2022/08/09 01:28:55;;;;;;;3.45;2.17;;;;;;;22.36;54.67;94780.69;5010757;28;20216;-72
2022/08/09 01:31:26;;;;;;;3.15;2.85;;;;;;;22.32;55.02;94785.41;5010347;28;20304;-72
2022/08/09 01:33:56;;;;;;;6.32;3.15;;;;;;;22.36;54.59;94780.69;5011186;28;20189;-71
2022/08/09 01:36:27;;;;;;;4.28;2.88;;;;;;;22.62;54.49;94782.97;5010725;28;20291;-71
2022/08/09 01:38:56;;;;;;;2.90;2.03;;;;;;;22.77;54.16;94769.13;5010906;28;20727;-72
2022/08/09 01:41:24;;;;;;;3.75;2.42;;;;;;;22.68;54.85;94764.78;5010852;28;20228;-71
2022/08/09 01:43:54;;;;;;;2.70;2.20;;;;;;;22.43;55.12;94755.00;5010582;28;20209;-71
2022/08/09 01:46:25;;;;;;;3.42;2.42;;;;;;;22.36;55.65;94746.78;5010700;28;20197;-73
2022/08/09 01:48:53;;;;;;;3.97;3.20;;;;;;;22.38;56.04;94734.16;5010830;28;20201;-73
2022/08/09 01:51:22;;;;;;;3.92;2.35;;;;;;;22.17;58.10;94740.50;5010363;28;20306;-72
2022/08/09 01:53:51;;;;;;;3.30;2.30;;;;;;;21.69;58.30;94740.22;5010752;28;20959;-72
2022/08/09 01:56:19;;;;;;;5.70;3.30;;;;;;;21.20;59.43;94747.28;5010932;28;20260;-71
2022/08/09 01:58:48;;;;;;;3.78;2.58;;;;;;;21.07;60.97;94745.28;5010889;28;20220;-72
2022/08/09 02:01:16;;;;;;;2.70;2.20;;;;;;;20.88;61.98;94729.91;5010273;28;20208;-71
2022/08/09 02:03:46;;;;;;;7.60;3.85;;;;;;;20.82;62.89;94745.22;5010512;28;20283;-72
2022/08/09 02:06:14;;;;;;;5.32;2.55;;;;;;;20.60;63.61;94735.34;4997615;28;20201;-72
2022/08/09 02:08:45;;;;;;;5.03;2.45;;;;;;;20.53;63.35;94733.34;5010344;28;20212;-72
2022/08/09 02:11:14;;;;;;;5.15;2.58;;;;;;;20.63;63.87;94740.09;5010261;28;20193;-72
2022/08/09 02:13:42;;;;;;;4.72;2.78;;;;;;;20.58;63.17;94736.53;5009371;28;20611;-72
2022/08/09 02:16:11;;;;;;;3.35;2.42;;;;;;;20.46;63.73;94742.38;5009722;28;20201;-72
2022/08/09 02:18:40;;;;;;;4.00;2.53;;;;;;;20.30;64.00;94736.38;5010111;28;20209;-71
2022/08/09 02:21:13;;;;;;;4.40;2.15;;;;;;;20.28;63.25;94741.47;5009625;28;20204;-72
2022/08/09 02:23:46;;;;;;;5.07;2.30;;;;;;;20.32;63.23;94750.56;5010174;28;20657;-72
2022/08/09 02:26:16;;;;;;;3.97;3.15;;;;;;;20.22;62.97;94746.59;5010219;28;20665;-72
2022/08/09 02:28:47;;;;;;;3.60;2.90;;;;;;;20.66;61.68;94747.53;5010040;28;20197;-72
2022/08/09 02:31:19;;;;;;;3.83;2.33;;;;;;;20.78;61.39;94755.44;5010146;28;20585;-72
2022/08/09 02:33:48;;;;;;;4.28;3.05;;;;;;;21.23;60.61;94760.28;5009715;28;20263;-71
2022/08/09 02:36:21;;;;;;;3.53;2.55;;;;;;;21.38;59.53;94757.53;5009307;28;20201;-72
2022/08/09 02:38:52;;;;;;;4.95;3.38;;;;;;;21.03;60.44;94767.31;5009928;28;20194;-72
2022/08/09 02:41:28;;;;;;;3.95;2.85;;;;;;;20.85;61.39;94774.75;5009836;28;20209;-71
2022/08/09 02:43:59;;;;;;;4.03;2.67;;;;;;;20.73;61.36;94777.88;5010112;28;20660;-72
2022/08/09 02:46:29;;;;;;;4.50;2.60;;;;;;;20.63;60.95;94770.38;5009364;28;20193;-72
2022/08/09 02:49:02;;;;;;;3.15;2.20;;;;;;;20.76;60.82;94766.06;5009126;28;20734;-72
2022/08/09 02:51:35;;;;;;;4.45;2.45;;;;;;;20.67;60.75;94776.66;5009352;28;20201;-71
2022/08/09 02:54:03;;;;;;;2.80;2.10;;;;;;;20.70;61.15;94765.66;5009868;28;20193;-72
2022/08/09 02:56:32;;;;;;;3.60;2.60;;;;;;;21.51;59.27;94769.75;5010109;28;20209;-72
2022/08/09 02:59:02;;;;;;;4.05;2.50;;;;;;;21.95;57.83;94772.88;5009805;28;20209;-72
2022/08/09 03:01:30;;;;;;;4.90;3.45;;;;;;;21.91;56.94;94765.78;5009415;28;20268;-72
2022/08/09 03:04:00;;;;;;;4.22;2.63;;;;;;;21.51;58.34;94769.75;5009536;28;20251;-73
2022/08/09 03:06:28;;;;;;;2.83;2.08;;;;;;;21.52;58.72;94771.31;5009960;28;20266;-71
2022/08/09 03:08:58;;;;;;;6.15;3.78;;;;;;;21.87;57.65;94765.78;5009538;28;20201;-71
2022/08/09 03:11:26;;;;;;;3.22;2.63;;;;;;;22.02;57.83;94772.09;5009612;28;20221;-71
2022/08/09 03:13:54;;;;;;;6.20;2.70;;;;;;;22.11;57.59;94768.94;5009695;28;20277;-72
2022/08/09 03:16:23;;;;;;;6.72;3.70;;;;;;;22.05;57.24;94773.25;5009333;28;20201;-71
2022/08/09 03:18:51;;;;;;;4.50;3.60;;;;;;;21.80;58.79;94776.81;5009714;28;20255;-71
2022/08/09 03:21:20;;;;;;;5.78;3.70;;;;;;;21.89;58.63;94773.66;5009542;28;20551;-71
2022/08/09 03:23:47;;;;;;;5.20;3.65;;;;;;;21.98;58.64;94777.59;5009406;28;20201;-71
2022/08/09 03:26:18;;;;;;;4.45;3.35;;;;;;;21.74;59.68;94761.84;5010767;28;20271;-71
2022/08/09 03:28:47;;;;;;;6.13;3.63;;;;;;;22.15;58.37;94770.47;5013674;28;20215;-71
2022/08/09 03:31:15;;;;;;;4.00;2.83;;;;;;;22.10;58.34;94765.38;5012874;28;20282;-72
2022/08/09 03:33:44;;;;;;;4.88;2.83;;;;;;;22.01;58.61;94776.03;5000538;28;20209;-72
2022/08/09 03:36:11;;;;;;;5.55;2.55;;;;;;;21.99;59.08;94778.41;5012700;28;20201;-72
2022/08/09 03:38:40;;;;;;;3.70;2.50;;;;;;;22.15;58.53;94764.97;5013324;28;20197;-72
2022/08/09 03:41:06;;;;;;;8.23;2.95;;;;;;;22.07;59.03;94770.91;5012916;28;20252;-72
2022/08/09 03:43:35;;;;;;;4.22;2.90;;;;;;;22.04;59.25;94774.44;5013071;28;20201;-72
2022/08/09 03:46:02;;;;;;;6.38;4.05;;;;;;;22.39;58.17;94774.38;5012750;28;20248;-72
2022/08/09 03:48:30;;;;;;;7.20;3.95;;;;;;;22.81;57.09;94780.94;5012565;28;20201;-72
2022/08/09 03:50:57;;;;;;;6.97;4.30;;;;;;;22.98;56.72;94782.81;5012823;28;20229;-72
2022/08/09 03:53:25;;;;;;;8.40;4.05;;;;;;;22.62;57.54;94787.69;5012938;28;20201;-72
2022/08/09 03:55:52;;;;;;;7.72;3.70;;;;;;;23.23;55.83;94785.44;5012517;28;20631;-72
2022/08/09 03:58:20;;;;;;;7.25;3.78;;;;;;;23.91;54.33;94781.00;5013116;28;20255;-71
2022/08/09 04:00:49;;;;;;;6.85;4.00;;;;;;;23.87;54.44;94783.00;5012449;28;20292;-72
2022/08/09 04:03:17;;;;;;;7.22;3.70;;;;;;;23.77;55.18;94786.66;5012895;28;20209;-72
2022/08/09 04:05:44;;;;;;;5.78;3.97;;;;;;;24.58;52.90;94789.81;5011802;28;20247;-72
2022/08/09 04:08:11;;;;;;;7.30;4.80;;;;;;;25.28;51.32;94774.28;5011515;28;21163;-73
2022/08/09 04:10:38;;;;;;;5.28;3.97;;;;;;;25.80;49.41;94771.13;5012207;28;20291;-73
2022/08/09 04:13:08;;;;;;;5.68;3.95;;;;;;;26.35;48.80;94778.13;5012635;28;20204;-74
2022/08/09 04:15:35;;;;;;;5.32;3.50;;;;;;;27.10;47.48;94771.84;5011879;28;20237;-72
2022/08/09 04:18:05;;;;;;;5.07;3.78;;;;;;;27.65;45.26;94770.22;5011636;28;20263;-73
2022/08/09 04:20:32;;;;;;;6.55;3.85;;;;;;;27.42;45.67;94766.34;5012110;28;20255;-73
2022/08/09 04:22:59;;;;;;;5.93;3.90;;;;;;;28.20;44.38;94770.06;5012559;28;20205;-72
2022/08/09 04:25:26;;;;;;;6.15;3.80;;;;;;;28.66;43.18;94776.41;5011753;28;20267;-72
2022/08/09 04:27:52;;;;;;;4.97;3.75;;;;;;;28.87;42.19;94770.22;5012353;28;20201;-73
2022/08/09 04:30:21;;;;;;;5.35;2.92;;;;;;;29.43;41.35;94764.19;5012265;28;20374;-72
2022/08/09 04:32:48;;;;;;;4.43;3.50;;;;;;;29.57;40.95;94763.75;5011682;28;20216;-72
2022/08/09 04:35:17;;;;;;;5.05;4.07;;;;;;;29.78;40.00;94775.50;5011632;28;20208;-72
2022/08/09 04:37:44;;;;;;;4.15;3.30;;;;;;;30.48;39.21;94769.53;5010938;28;20213;-73
2022/08/09 04:40:12;;;;;;;4.93;3.60;;;;;;;30.35;38.98;94772.38;5011732;28;20205;-72
2022/08/09 04:42:39;;;;;;;4.78;3.65;;;;;;;30.91;38.34;94780.00;5011794;28;20287;-73
2022/08/09 04:45:07;;;;;;;4.28;3.78;;;;;;;31.32;37.33;94786.50;5012057;28;20201;-73
2022/08/09 04:47:33;;;;;;;8.07;3.75;;;;;;;31.12;37.54;94783.28;5011041;28;20209;-73
2022/08/09 04:50:02;;;;;;;4.97;3.75;;;;;;;32.20;36.11;94776.63;5010991;28;20521;-73
2022/08/09 04:52:30;;;;;;;5.57;3.95;;;;;;;32.19;35.66;94788.28;5010949;28;20283;-73
2022/08/09 04:54:59;;;;;;;4.63;3.60;;;;;;;31.97;35.63;94785.56;5010594;28;20205;-73
2022/08/09 04:57:26;;;;;;;5.07;3.30;;;;;;;32.09;35.42;94787.47;5011257;28;20256;-74
2022/08/09 04:59:55;;;;;;;5.18;4.30;;;;;;;32.52;35.14;94796.94;5011860;28;20212;-73
2022/08/09 05:02:22;;;;;;;4.93;3.80;;;;;;;32.58;35.08;94789.44;5011221;28;20197;-73
2022/08/09 05:04:49;;;;;;;4.43;3.90;;;;;;;33.09;34.12;94796.00;5011480;28;20255;-74
2022/08/09 05:07:16;;;;;;;4.35;3.95;;;;;;;32.05;35.62;94798.81;5011366;28;20271;-74
2022/08/09 05:09:44;;;;;;;5.68;4.03;;;;;;;32.02;35.88;94798.97;5011444;28;20203;-73
2022/08/09 05:12:11;;;;;;;5.40;3.90;;;;;;;31.27;36.39;94801.09;5011183;28;20213;-74
2022/08/09 05:14:38;;;;;;;4.32;3.80;;;;;;;31.47;36.15;94793.13;5011124;28;20244;-73
2022/08/09 05:17:05;;;;;;;6.35;4.28;;;;;;;31.30;36.28;94805.78;5011379;28;20259;-74
2022/08/09 05:19:32;;;;;;;6.82;4.65;;;;;;;31.82;35.81;94795.81;5010913;28;20204;-74
2022/08/09 05:21:59;;;;;;;4.50;3.85;;;;;;;31.99;35.86;94800.66;5011248;28;20205;-74
2022/08/09 05:24:25;;;;;;;6.30;4.70;;;;;;;31.92;35.80;94800.19;5010914;28;20603;-73
2022/08/09 05:26:54;;;;;;;5.28;4.63;;;;;;;32.31;34.59;94796.56;5011196;28;20209;-73
2022/08/09 05:29:21;;;;;;;5.50;4.32;;;;;;;32.05;35.39;94804.44;5011037;28;20276;-73
2022/08/09 05:31:48;;;;;;;5.85;4.18;;;;;;;32.26;35.69;94802.78;5010870;28;20238;-73
2022/08/09 05:34:15;;;;;;;5.25;4.18;;;;;;;33.11;34.50;94810.34;5010629;28;20205;-73
2022/08/09 05:36:42;;;;;;;5.22;4.68;;;;;;;31.50;36.26;94820.22;5010787;28;20271;-73
2022/08/09 05:39:09;;;;;;;10.00;4.60;;;;;;;30.04;38.35;94825.34;5010686;28;20208;-74
2022/08/09 05:41:36;;;;;;;7.07;4.68;;;;;;;32.08;35.99;94820.34;5010832;28;20290;-73
2022/08/09 05:44:05;;;;;;;5.70;4.70;;;;;;;32.64;34.67;94813.63;5010945;28;20197;-73
2022/08/09 05:46:32;;;;;;;5.95;4.47;;;;;;;33.31;33.95;94812.69;5010505;28;20219;-73
2022/08/09 05:48:58;;;;;;;7.32;4.50;;;;;;;33.08;33.30;94811.28;5010448;28;20259;-73
2022/08/09 05:51:25;;;;;;;6.90;5.10;;;;;;;34.37;31.90;94806.84;5010217;28;20228;-74
2022/08/09 05:53:52;;;;;;;6.10;4.32;;;;;;;35.02;30.92;94807.94;5010611;28;20209;-73
2022/08/09 05:56:19;;;;;;;5.55;4.60;;;;;;;35.73;30.37;94800.53;5010850;28;20311;-73
2022/08/09 05:58:46;;;;;;;6.30;4.38;;;;;;;35.64;30.47;94795.78;5010599;28;20216;-73
2022/08/09 06:01:14;;;;;;;5.03;3.85;;;;;;;36.52;29.16;94792.78;4997358;28;20216;-74
2022/08/09 06:03:41;;;;;;;7.07;4.45;;;;;;;37.08;28.20;94804.78;5010244;28;20205;-73
2022/08/09 06:06:08;;;;;;;6.40;4.68;;;;;;;37.30;28.09;94804.28;5010338;28;20748;-73
2022/08/09 06:08:35;;;;;;;7.22;5.07;;;;;;;36.96;28.24;94803.88;5009982;28;20679;-73
2022/08/09 06:11:01;;;;;;;9.60;5.10;;;;;;;37.25;27.86;94802.94;5009348;28;20240;-74
2022/08/09 06:13:29;;;;;;;8.43;4.32;;;;;;;36.30;29.05;94800.94;5009965;28;20323;-73
2022/08/09 06:15:56;;;;;;;5.35;4.40;;;;;;;35.90;29.14;94799.56;5009892;28;20624;-74
2022/08/09 06:18:24;;;;;;;6.35;4.30;;;;;;;36.10;29.48;94795.22;5010424;28;20615;-73
2022/08/09 06:20:51;;;;;;;8.52;4.70;;;;;;;35.51;30.20;94795.31;5009683;28;20306;-73
2022/08/09 06:23:18;;;;;;;9.00;5.80;;;;;;;34.79;30.48;94800.34;5009303;28;20201;-73
2022/08/09 06:25:44;;;;;;;11.45;6.45;;;;;;;36.17;29.08;94811.75;5009506;28;20208;-73
2022/08/09 06:28:11;;;;;;;12.55;7.32;;;;;;;34.00;31.20;94811.88;5009177;28;20209;-74
2022/08/09 06:30:38;;;;;;;10.13;7.03;;;;;;;33.58;31.61;94814.66;5008818;28;20221;-73
2022/08/09 06:33:05;;;;;;;8.90;6.53;;;;;;;35.98;28.93;94806.34;5008573;28;20201;-73
2022/08/09 06:35:33;;;;;;;8.80;6.90;;;;;;;35.38;29.62;94803.28;5008704;28;20213;-73
2022/08/09 06:38:00;;;;;;;11.23;7.30;;;;;;;36.32;27.89;94798.41;5007931;28;20608;-73
2022/08/09 06:40:27;;;;;;;9.43;6.53;;;;;;;35.76;29.17;94800.38;5008530;28;20252;-72
2022/08/09 06:42:54;;;;;;;9.98;7.00;;;;;;;36.02;28.88;94808.19;5008525;28;20216;-73
2022/08/09 06:45:21;;;;;;;11.10;7.03;;;;;;;35.46;30.02;94798.78;5008670;28;20212;-73
2022/08/09 06:47:48;;;;;;;7.53;6.03;;;;;;;35.44;30.37;94801.31;5007735;28;20275;-72
2022/08/09 06:50:16;;;;;;;8.55;6.25;;;;;;;33.50;31.29;94802.19;5008281;28;20204;-73
2022/08/09 06:52:45;;;;;;;8.20;6.45;;;;;;;32.83;32.43;94806.00;5007879;28;20204;-72
2022/08/09 06:55:13;;;;;;;9.15;6.90;;;;;;;32.82;32.96;94808.03;5008924;28;20211;-74
2022/08/09 06:57:40;;;;;;;8.75;6.13;;;;;;;33.05;31.58;94808.66;5009612;28;20315;-73
2022/08/09 07:00:08;;;;;;;6.93;6.07;;;;;;;33.91;31.28;94805.50;5009612;28;20572;-73
2022/08/09 07:02:35;;;;;;;6.68;5.78;;;;;;;34.42;30.57;94797.75;5011258;28;20209;-73
2022/08/09 07:05:02;;;;;;;7.05;5.53;;;;;;;35.13;29.27;94799.69;5011935;28;20200;-74
2022/08/09 07:07:29;;;;;;;8.13;5.97;;;;;;;35.35;28.95;94793.75;5011984;28;20599;-73
2022/08/09 07:10:00;;;;;;;8.73;5.78;;;;;;;35.57;28.77;94793.34;5011236;28;20220;-73
2022/08/09 07:12:27;;;;;;;7.45;5.97;;;;;;;34.73;29.73;94796.59;5010692;28;20227;-73
2022/08/09 07:14:54;;;;;;;8.07;7.20;;;;;;;34.77;29.72;94789.53;5012272;28;20318;-73
2022/08/09 07:17:21;;;;;;;9.93;8.00;;;;;;;36.43;28.29;94787.28;5013039;28;20213;-73
2022/08/09 07:19:48;;;;;;;10.13;7.30;;;;;;;36.30;27.98;94786.84;5012180;28;20204;-72
2022/08/09 07:22:15;;;;;;;9.50;7.13;;;;;;;34.82;29.27;94799.38;5012137;28;20549;-74
2022/08/09 07:24:41;;;;;;;11.57;7.38;;;;;;;34.42;29.65;94792.13;5011641;28;20213;-74
2022/08/09 07:27:11;;;;;;;10.23;7.28;;;;;;;34.91;29.49;94790.84;5005395;28;20213;-74
2022/08/09 07:29:38;;;;;;;9.55;7.20;;;;;;;34.57;28.67;94797.81;5006038;28;20627;-73
2022/08/09 07:32:06;;;;;;;9.35;6.07;;;;;;;34.55;28.75;94798.28;5006622;28;20581;-73
2022/08/09 07:34:33;;;;;;;6.65;5.60;;;;;;;35.20;27.86;94793.69;5009976;28;20211;-73
2022/08/09 07:37:00;;;;;;;8.95;6.13;;;;;;;35.71;27.96;94791.78;5009548;28;20208;-72
2022/08/09 07:39:27;;;;;;;7.03;5.28;;;;;;;34.94;28.46;94798.34;5008127;28;20286;-73
2022/08/09 07:41:53;;;;;;;4.88;4.30;;;;;;;34.36;29.07;94799.66;5011604;28;20259;-72
2022/08/09 07:44:22;;;;;;;6.28;4.30;;;;;;;32.62;30.90;94802.06;5004201;28;20209;-73
2022/08/09 07:46:48;;;;;;;6.35;4.43;;;;;;;33.01;31.07;94789.16;5004148;28;20209;-74
2022/08/09 07:49:15;;;;;;;6.20;4.03;;;;;;;33.32;30.52;94803.03;5011618;28;20216;-73
2022/08/09 07:51:42;;;;;;;7.68;4.15;;;;;;;33.41;30.17;94799.41;5011427;28;20666;-74
2022/08/09 07:54:09;;;;;;;4.47;3.63;;;;;;;32.97;31.36;94799.75;5010708;28;20734;-73
2022/08/09 07:56:37;;;;;;;6.10;3.70;;;;;;;33.58;30.36;94803.41;5002160;28;20209;-73
2022/08/09 07:59:06;;;;;;;6.38;3.97;;;;;;;31.67;33.36;94813.16;5008915;28;20344;-73
2022/08/09 08:01:34;;;;;;;6.00;4.05;;;;;;;31.69;33.08;94799.50;5011244;28;20220;-71
2022/08/09 08:04:01;;;;;;;4.25;3.55;;;;;;;33.04;31.26;94796.63;5010346;28;20201;-72
2022/08/09 08:06:29;;;;;;;5.60;3.60;;;;;;;31.93;32.65;94801.75;5011209;28;20263;-74
2022/08/09 08:08:55;;;;;;;7.60;4.13;;;;;;;31.81;33.04;94794.22;5011327;28;20271;-73
2022/08/09 08:11:22;;;;;;;7.10;3.65;;;;;;;32.38;31.81;94787.88;5011233;28;20236;-73
2022/08/09 08:13:50;;;;;;;5.43;3.83;;;;;;;31.99;32.63;94788.66;5010454;28;20221;-73
2022/08/09 08:16:16;;;;;;;4.32;3.83;;;;;;;32.32;32.69;94784.13;5011233;28;20292;-72
2022/08/09 08:18:44;;;;;;;5.40;3.95;;;;;;;33.21;31.65;94782.25;5011312;28;20217;-73
2022/08/09 08:21:11;;;;;;;3.30;2.70;;;;;;;32.37;30.51;94777.13;5002695;28;20202;-73
2022/08/09 08:23:38;;;;;;;4.30;3.00;;;;;;;32.56;31.45;94781.47;5001987;28;20557;-73
2022/08/09 08:26:05;;;;;;;9.02;3.58;;;;;;;32.73;30.98;94774.34;5008507;28;20213;-73
2022/08/09 08:28:32;;;;;;;5.88;3.05;;;;;;;33.41;31.21;94771.31;5009359;28;20205;-73
2022/08/09 08:30:59;;;;;;;5.55;3.58;;;;;;;32.52;30.43;94772.47;5009279;28;20631;-73
2022/08/09 08:33:26;;;;;;;4.22;3.13;;;;;;;31.90;30.82;94774.63;5009921;28;20989;-74
2022/08/09 08:35:54;;;;;;;3.90;2.90;;;;;;;31.34;32.10;94770.81;5009245;28;20659;-73
2022/08/09 08:38:21;;;;;;;3.58;3.15;;;;;;;31.98;30.97;94770.31;5005633;28;20205;-73
2022/08/09 08:40:48;;;;;;;2.90;2.47;;;;;;;32.49;29.10;94771.38;5000841;28;20201;-73
2022/08/09 08:43:15;;;;;;;3.35;2.70;;;;;;;33.10;28.96;94763.84;5005170;28;20197;-73
2022/08/09 08:45:50;;;;;;;3.90;2.95;;;;;;;32.88;28.73;94768.88;5007075;28;20209;-73
2022/08/09 08:48:17;;;;;;;3.65;2.20;;;;;;;32.38;28.06;94759.81;5009461;28;20317;-74
2022/08/09 08:50:46;;;;;;;3.60;2.72;;;;;;;31.74;30.34;94768.03;4995946;28;20285;-74
2022/08/09 08:53:15;;;;;;;6.75;3.33;;;;;;;32.17;29.30;94759.91;4997626;28;20287;-73
2022/08/09 08:55:43;;;;;;;2.92;2.28;;;;;;;31.62;30.04;94766.09;5009770;28;20208;-74
2022/08/09 08:58:11;;;;;;;2.53;2.28;;;;;;;30.85;30.59;94765.03;5010306;28;20295;-73
2022/08/09 09:00:41;;;;;;;7.70;2.92;;;;;;;30.55;31.58;94768.53;4998566;28;20206;-73
2022/08/09 09:03:10;;;;;;;3.20;2.63;;;;;;;30.40;31.34;94755.03;5010577;28;20683;-80
2022/08/09 09:05:37;;;;;;;2.95;2.63;;;;;;;30.71;31.96;94751.56;5010165;28;20216;-78
2022/08/09 09:08:06;;;;;;;3.05;2.65;;;;;;;30.02;32.03;94743.19;5009078;28;20639;-81
2022/08/09 09:10:35;;;;;;;6.15;2.63;;;;;;;30.47;30.61;94745.63;5000217;28;20664;-74
2022/08/09 09:13:03;;;;;;;4.95;2.30;;;;;;;30.67;29.73;94742.53;5009363;28;20675;-73
2022/08/09 09:15:30;;;;;;;4.68;2.30;;;;;;;30.65;29.76;94728.22;5010065;28;20229;-73
2022/08/09 09:17:58;;;;;;;2.33;2.13;;;;;;;31.28;29.80;94729.88;5009955;28;20209;-73
2022/08/09 09:20:25;;;;;;;2.50;2.15;;;;;;;30.95;27.31;94733.06;5000343;28;20213;-74
2022/08/09 09:22:54;;;;;;;4.88;2.47;;;;;;;31.04;29.06;94732.34;5009760;28;20225;-73
2022/08/09 09:25:36;;;;;;;3.13;1.80;;;;;;;30.90;27.32;94739.25;5009304;28;20321;-73
2022/08/09 09:28:04;;;;;;;3.25;1.88;;;;;;;30.68;26.73;94732.91;5010146;28;20263;-73
2022/08/09 09:30:33;;;;;;;3.25;2.40;;;;;;;30.74;27.59;94737.47;5001849;28;20247;-73
2022/08/09 09:33:06;;;;;;;2.72;2.25;;;;;;;30.58;27.47;94711.69;5009818;28;20258;-73
2022/08/09 09:35:34;;;;;;;9.60;3.78;;;;;;;31.45;26.61;94715.16;5009692;28;20236;-73
2022/08/09 09:38:01;;;;;;;3.72;2.20;;;;;;;31.89;24.32;94705.81;5009915;28;20283;-74
2022/08/09 09:40:45;;;;;;;2.83;1.85;;;;;;;31.63;25.12;94716.47;5005393;28;20205;-73
2022/08/09 09:43:18;;;;;;;2.08;1.88;;;;;;;31.60;26.99;94718.16;5010292;28;20231;-74
2022/08/09 09:45:50;;;;;;;3.75;2.08;;;;;;;31.90;25.51;94713.75;5009790;28;20924;-75
2022/08/09 09:48:18;;;;;;;5.22;2.13;;;;;;;31.49;26.45;94706.63;4995900;28;20205;-74
2022/08/09 09:50:47;;;;;;;2.35;1.90;;;;;;;31.72;26.53;94714.50;4995116;28;20281;-74
2022/08/09 09:53:16;;;;;;;2.65;2.05;;;;;;;32.13;25.34;94699.16;4997239;28;20232;-74
2022/08/09 09:56:01;;;;;;;2.38;1.88;;;;;;;32.40;24.63;94694.81;5009283;28;20712;-74
2022/08/09 09:58:44;;;;;;;4.28;1.85;;;;;;;31.81;24.85;94701.75;5008613;28;20201;-75
2022/08/09 10:01:18;;;;;;;2.95;1.98;;;;;;;31.90;25.32;94704.56;5007002;28;20703;-73
2022/08/09 10:03:46;;;;;;;2.10;1.90;;;;;;;32.81;25.28;94691.38;5009704;28;20308;-73
2022/08/09 10:06:13;;;;;;;3.05;1.98;;;;;;;32.26;25.34;94698.25;5009520;28;20263;-74
2022/08/09 10:08:40;;;;;;;4.72;2.08;;;;;;;31.81;25.40;94693.34;5006866;28;20691;-73
2022/08/09 10:11:21;;;;;;;2.83;1.77;;;;;;;30.85;26.30;94706.28;5004360;28;20641;-75
2022/08/09 10:13:49;;;;;;;2.15;1.60;;;;;;;30.14;26.29;94708.81;5009515;28;20216;-73
2022/08/09 10:16:26;;;;;;;2.70;1.50;;;;;;;29.91;26.95;94703.63;5009456;28;20205;-73
2022/08/09 10:18:54;;;;;;;2.78;0.98;;;;;;;30.19;25.50;94704.69;5005843;28;20205;-76
2022/08/09 10:21:22;;;;;;;2.20;1.60;;;;;;;30.43;25.72;94699.44;5004889;28;20250;-76
2022/08/09 10:23:50;;;;;;;1.38;1.25;;;;;;;31.05;24.45;94694.72;5009631;28;20326;-73
2022/08/09 10:26:20;;;;;;;1.60;1.38;;;;;;;30.45;25.69;94703.34;5009865;28;20605;-74
2022/08/09 10:28:47;;;;;;;2.00;1.30;;;;;;;30.35;27.05;94708.06;5005544;28;20224;-73
2022/08/09 10:31:14;;;;;;;5.00;1.88;;;;;;;30.36;27.92;94701.25;5004999;28;20669;-73
2022/08/09 10:33:42;;;;;;;1.60;1.50;;;;;;;30.10;28.49;94710.94;4996152;28;20245;-79
2022/08/09 10:36:12;;;;;;;3.95;1.70;;;;;;;30.34;27.17;94698.09;5012359;28;20615;-74
2022/08/09 10:38:40;;;;;;;1.70;1.60;;;;;;;30.62;27.65;94695.53;5010788;28;20260;-74
2022/08/09 10:41:08;;;;;;;1.70;1.60;;;;;;;30.35;27.19;94687.72;4998098;28;20232;-74
2022/08/09 10:43:41;;;;;;;2.22;1.70;;;;;;;30.19;26.62;94693.50;5013047;28;20209;-74
2022/08/09 10:46:24;;;;;;;2.58;1.63;;;;;;;30.78;26.80;94708.56;5013156;28;20209;-73
2022/08/09 10:48:58;;;;;;;3.20;1.85;;;;;;;30.88;26.94;94680.19;5008986;28;20197;-73
2022/08/09 10:51:37;;;;;;;2.05;1.38;;;;;;;31.17;26.09;94673.50;5003388;28;20196;-73
2022/08/09 10:54:06;;;;;;;2.47;1.20;;;;;;;30.62;25.79;94671.16;5013531;28;20223;-77
2022/08/09 10:56:35;;;;;;;1.92;1.55;;;;;;;30.26;25.40;94682.84;5012062;28;20747;-79
2022/08/09 10:59:29;;;;;;;3.20;1.58;;;;;;;30.03;25.52;94683.28;5008635;28;20264;-72
2022/08/09 11:01:57;;;;;;;2.55;1.80;;;;;;;29.87;25.97;94683.41;5007238;28;20197;-73
2022/08/09 11:04:25;;;;;;;1.52;1.42;;;;;;;29.96;25.57;94705.81;5013141;28;20228;-75
2022/08/09 11:07:27;;;;;;;3.45;1.70;;;;;;;29.85;26.59;94697.03;5012503;28;20611;-73
2022/08/09 11:09:53;;;;;;;5.10;2.08;;;;;;;30.19;26.75;94691.50;5003882;28;20300;-74
2022/08/09 11:12:23;;;;;;;1.75;1.60;;;;;;;30.27;25.51;94692.78;5010323;28;20245;-74
2022/08/09 11:14:54;;;;;;;2.05;1.60;;;;;;;30.87;26.91;94692.63;5004184;28;20256;-74
2022/08/09 11:17:54;;;;;;;4.40;2.00;;;;;;;31.17;26.73;94695.88;5012568;28;20748;-73
2022/08/09 11:20:51;;;;;;;2.65;1.60;;;;;;;30.99;27.25;94686.16;5003139;28;20297;-74
2022/08/09 11:23:18;;;;;;;6.25;2.20;;;;;;;30.63;28.05;94691.50;4932153;29;20254;-74
2022/08/09 11:25:48;;;;;;;2.05;1.80;;;;;;;30.91;26.89;94678.47;4993849;28;20213;-75
2022/08/09 11:28:34;;;;;;;1.98;1.58;;;;;;;32.21;26.23;94671.63;5011990;28;20289;-74
2022/08/09 11:31:04;;;;;;;2.38;1.75;;;;;;;32.67;25.37;94680.78;5005967;28;20201;-73
2022/08/09 11:33:48;;;;;;;2.08;1.70;;;;;;;32.32;23.98;94674.75;5012130;28;20700;-74
2022/08/09 11:36:17;;;;;;;6.30;1.90;;;;;;;32.52;23.82;94662.28;5012557;28;20209;-74
2022/08/09 11:39:00;;;;;;;2.47;1.90;;;;;;;32.25;23.66;94665.88;5008897;28;20197;-74
2022/08/09 11:41:29;;;;;;;2.15;1.70;;;;;;;31.64;24.03;94665.59;5008922;28;20201;-76
2022/08/09 11:43:57;;;;;;;2.55;1.88;;;;;;;30.94;24.21;94681.16;5012233;28;20391;-74